sensor_id;sensor_type;location;lat;lon;timestamp;pressure;altitude;pressure_sealevel;temperature;humidity
53526;BME280;40551;50.478;19.378;2023-07-13T00:02:12;97587.27;;;19.88;81.89
53526;BME280;40551;50.478;19.378;2023-07-13T00:04:45;97588.88;;;19.85;82.17
53526;BME280;40551;50.478;19.378;2023-07-13T00:07:18;97596.85;;;19.86;82.52
53526;BME280;40551;50.478;19.378;2023-07-13T00:09:54;97604.29;;;19.87;82.80
53526;BME280;40551;50.478;19.378;2023-07-13T00:12:31;97596.08;;;19.87;82.81
53526;BME280;40551;50.478;19.378;2023-07-13T00:15:11;97592.17;;;19.86;83.10
53526;BME280;40551;50.478;19.378;2023-07-13T00:17:46;97582.17;;;19.79;82.63
53526;BME280;40551;50.478;19.378;2023-07-13T00:20:23;97586.79;;;19.71;83.02
53526;BME280;40551;50.478;19.378;2023-07-13T00:22:57;97602.41;;;19.66;83.23
53526;BME280;40551;50.478;19.378;2023-07-13T00:25:32;97618.65;;;19.68;83.32
53526;BME280;40551;50.478;19.378;2023-07-13T00:28:08;97623.66;;;19.71;83.70
53526;BME280;40551;50.478;19.378;2023-07-13T00:30:42;97620.27;;;19.77;83.93
53526;BME280;40551;50.478;19.378;2023-07-13T00:33:16;97621.29;;;19.81;83.89
53526;BME280;40551;50.478;19.378;2023-07-13T00:35:50;97620.00;;;19.84;84.04
53526;BME280;40551;50.478;19.378;2023-07-13T00:38:24;97619.86;;;19.84;83.98
53526;BME280;40551;50.478;19.378;2023-07-13T00:40:57;97622.06;;;19.82;84.00
53526;BME280;40551;50.478;19.378;2023-07-13T00:43:31;97615.88;;;19.78;84.22
53526;BME280;40551;50.478;19.378;2023-07-13T00:46:18;97611.22;;;19.72;84.23
53526;BME280;40551;50.478;19.378;2023-07-13T00:48:54;97624.11;;;19.73;84.60
53526;BME280;40551;50.478;19.378;2023-07-13T00:51:33;97618.39;;;19.72;84.50
53526;BME280;40551;50.478;19.378;2023-07-13T00:54:12;97606.29;;;19.73;84.66
53526;BME280;40551;50.478;19.378;2023-07-13T00:56:48;97596.54;;;19.77;84.64
53526;BME280;40551;50.478;19.378;2023-07-13T00:59:25;97593.91;;;19.79;84.82
53526;BME280;40551;50.478;19.378;2023-07-13T01:01:59;97591.15;;;19.80;84.72
53526;BME280;40551;50.478;19.378;2023-07-13T01:04:35;97589.73;;;19.75;84.42
53526;BME280;40551;50.478;19.378;2023-07-13T01:07:09;97584.23;;;19.71;84.67
53526;BME280;40551;50.478;19.378;2023-07-13T01:09:45;97583.14;;;19.70;84.79
53526;BME280;40551;50.478;19.378;2023-07-13T01:12:19;97582.88;;;19.68;84.74
53526;BME280;40551;50.478;19.378;2023-07-13T01:15:00;97578.45;;;19.63;84.53
53526;BME280;40551;50.478;19.378;2023-07-13T01:17:35;97586.07;;;19.58;84.75
53526;BME280;40551;50.478;19.378;2023-07-13T01:20:13;97589.23;;;19.54;84.91
53526;BME280;40551;50.478;19.378;2023-07-13T01:22:47;97584.73;;;19.52;85.11
53526;BME280;40551;50.478;19.378;2023-07-13T01:25:22;97588.31;;;19.50;85.08
53526;BME280;40551;50.478;19.378;2023-07-13T01:27:57;97590.14;;;19.47;85.17
53526;BME280;40551;50.478;19.378;2023-07-13T01:30:31;97586.16;;;19.45;85.19
53526;BME280;40551;50.478;19.378;2023-07-13T01:33:08;97578.11;;;19.39;84.88
53526;BME280;40551;50.478;19.378;2023-07-13T01:35:44;97568.67;;;19.36;85.09
53526;BME280;40551;50.478;19.378;2023-07-13T01:38:22;97566.48;;;19.34;85.32
53526;BME280;40551;50.478;19.378;2023-07-13T01:40:56;97565.74;;;19.36;85.51
53526;BME280;40551;50.478;19.378;2023-07-13T01:43:31;97566.67;;;19.37;85.62
53526;BME280;40551;50.478;19.378;2023-07-13T01:46:04;97561.02;;;19.37;85.62
53526;BME280;40551;50.478;19.378;2023-07-13T01:48:54;97562.06;;;19.38;85.60
53526;BME280;40551;50.478;19.378;2023-07-13T01:51:28;97553.54;;;19.39;85.57
53526;BME280;40551;50.478;19.378;2023-07-13T01:54:01;97549.21;;;19.40;85.49
53526;BME280;40551;50.478;19.378;2023-07-13T01:56:35;97540.23;;;19.41;85.48
53526;BME280;40551;50.478;19.378;2023-07-13T01:59:10;97536.34;;;19.41;85.68
53526;BME280;40551;50.478;19.378;2023-07-13T02:01:43;97528.27;;;19.41;85.56
53526;BME280;40551;50.478;19.378;2023-07-13T02:04:17;97524.86;;;19.39;85.50
53526;BME280;40551;50.478;19.378;2023-07-13T02:06:52;97526.88;;;19.36;85.38
53526;BME280;40551;50.478;19.378;2023-07-13T02:09:27;97531.81;;;19.33;85.53
53526;BME280;40551;50.478;19.378;2023-07-13T02:12:01;97535.25;;;19.31;85.61
53526;BME280;40551;50.478;19.378;2023-07-13T02:14:37;97525.64;;;19.29;85.52
53526;BME280;40551;50.478;19.378;2023-07-13T02:17:11;97522.45;;;19.32;85.48
53526;BME280;40551;50.478;19.378;2023-07-13T02:19:45;97526.42;;;19.31;85.71
53526;BME280;40551;50.478;19.378;2023-07-13T02:22:19;97530.54;;;19.29;85.64
53526;BME280;40551;50.478;19.378;2023-07-13T02:24:54;97537.76;;;19.26;85.47
53526;BME280;40551;50.478;19.378;2023-07-13T02:27:31;97543.75;;;19.22;85.44
53526;BME280;40551;50.478;19.378;2023-07-13T02:30:10;97547.42;;;19.18;85.43
53526;BME280;40551;50.478;19.378;2023-07-13T02:32:44;97553.13;;;19.13;85.71
53526;BME280;40551;50.478;19.378;2023-07-13T02:35:18;97554.86;;;19.12;85.93
53526;BME280;40551;50.478;19.378;2023-07-13T02:37:52;97556.48;;;19.12;85.88
53526;BME280;40551;50.478;19.378;2023-07-13T02:40:26;97562.58;;;19.12;85.83
53526;BME280;40551;50.478;19.378;2023-07-13T02:43:00;97548.51;;;19.13;85.97
53526;BME280;40551;50.478;19.378;2023-07-13T02:45:35;97542.98;;;19.12;86.03
53526;BME280;40551;50.478;19.378;2023-07-13T02:48:09;97535.50;;;19.08;85.74
53526;BME280;40551;50.478;19.378;2023-07-13T02:50:42;97532.31;;;19.03;85.86
53526;BME280;40551;50.478;19.378;2023-07-13T02:53:17;97523.05;;;19.01;85.93
53526;BME280;40551;50.478;19.378;2023-07-13T02:55:52;97510.96;;;18.97;85.86
53526;BME280;40551;50.478;19.378;2023-07-13T02:58:26;97494.30;;;18.90;85.87
53526;BME280;40551;50.478;19.378;2023-07-13T03:01:05;97491.48;;;18.84;86.00
53526;BME280;40551;50.478;19.378;2023-07-13T03:03:40;97491.69;;;18.83;86.23
53526;BME280;40551;50.478;19.378;2023-07-13T03:06:15;97489.65;;;18.84;86.32
53526;BME280;40551;50.478;19.378;2023-07-13T03:08:55;97491.13;;;18.89;86.69
53526;BME280;40551;50.478;19.378;2023-07-13T03:11:28;97490.67;;;18.91;86.70
53526;BME280;40551;50.478;19.378;2023-07-13T03:14:18;97497.52;;;18.92;86.71
53526;BME280;40551;50.478;19.378;2023-07-13T03:16:52;97504.95;;;18.93;86.55
53526;BME280;40551;50.478;19.378;2023-07-13T03:19:30;97517.72;;;18.95;86.55
53526;BME280;40551;50.478;19.378;2023-07-13T03:22:08;97535.02;;;18.97;86.76
53526;BME280;40551;50.478;19.378;2023-07-13T03:24:44;97558.55;;;18.99;86.75
53526;BME280;40551;50.478;19.378;2023-07-13T03:27:17;97574.48;;;18.98;86.89
53526;BME280;40551;50.478;19.378;2023-07-13T03:29:53;97569.72;;;18.95;87.10
53526;BME280;40551;50.478;19.378;2023-07-13T03:32:26;97577.95;;;18.97;87.34
53526;BME280;40551;50.478;19.378;2023-07-13T03:35:00;97588.70;;;18.99;87.42
53526;BME280;40551;50.478;19.378;2023-07-13T03:37:34;97590.19;;;19.01;87.70
53526;BME280;40551;50.478;19.378;2023-07-13T03:40:18;97588.39;;;19.04;87.68
53526;BME280;40551;50.478;19.378;2023-07-13T03:42:52;97592.65;;;19.05;87.69
53526;BME280;40551;50.478;19.378;2023-07-13T03:45:26;97587.69;;;19.07;87.78
53526;BME280;40551;50.478;19.378;2023-07-13T03:48:02;97583.34;;;19.10;87.77
53526;BME280;40551;50.478;19.378;2023-07-13T03:50:37;97580.62;;;19.10;87.77
53526;BME280;40551;50.478;19.378;2023-07-13T03:53:11;97579.52;;;19.11;87.75
53526;BME280;40551;50.478;19.378;2023-07-13T03:55:45;97583.63;;;19.12;87.75
53526;BME280;40551;50.478;19.378;2023-07-13T03:58:36;97588.77;;;19.14;87.82
53526;BME280;40551;50.478;19.378;2023-07-13T04:01:18;97594.79;;;19.20;87.98
53526;BME280;40551;50.478;19.378;2023-07-13T04:03:51;97593.03;;;19.28;88.14
53526;BME280;40551;50.478;19.378;2023-07-13T04:06:29;97592.66;;;19.37;87.93
53526;BME280;40551;50.478;19.378;2023-07-13T04:09:04;97595.81;;;19.44;87.85
53526;BME280;40551;50.478;19.378;2023-07-13T04:11:37;97603.43;;;19.50;87.55
53526;BME280;40551;50.478;19.378;2023-07-13T04:14:12;97606.65;;;19.57;87.39
53526;BME280;40551;50.478;19.378;2023-07-13T04:16:46;97611.06;;;19.62;87.26
53526;BME280;40551;50.478;19.378;2023-07-13T04:19:20;97615.89;;;19.71;87.37
53526;BME280;40551;50.478;19.378;2023-07-13T04:21:56;97615.38;;;19.93;87.78
53526;BME280;40551;50.478;19.378;2023-07-13T04:24:30;97620.37;;;20.22;87.59
53526;BME280;40551;50.478;19.378;2023-07-13T04:27:03;97631.19;;;20.42;87.29
53526;BME280;40551;50.478;19.378;2023-07-13T04:29:36;97641.34;;;20.56;86.32
53526;BME280;40551;50.478;19.378;2023-07-13T04:32:10;97638.78;;;20.71;86.38
53526;BME280;40551;50.478;19.378;2023-07-13T04:34:43;97641.55;;;20.88;85.93
53526;BME280;40551;50.478;19.378;2023-07-13T04:37:18;97637.80;;;21.00;85.71
53526;BME280;40551;50.478;19.378;2023-07-13T04:39:51;97633.88;;;21.11;84.87
53526;BME280;40551;50.478;19.378;2023-07-13T04:42:24;97638.21;;;21.14;84.43
53526;BME280;40551;50.478;19.378;2023-07-13T04:44:58;97644.51;;;21.21;84.46
53526;BME280;40551;50.478;19.378;2023-07-13T04:47:34;97642.64;;;21.30;84.47
53526;BME280;40551;50.478;19.378;2023-07-13T04:50:12;97636.03;;;21.37;84.34
53526;BME280;40551;50.478;19.378;2023-07-13T04:52:46;97625.96;;;21.43;84.21
53526;BME280;40551;50.478;19.378;2023-07-13T04:55:21;97618.28;;;21.50;83.93
53526;BME280;40551;50.478;19.378;2023-07-13T04:57:55;97614.55;;;21.61;83.65
53526;BME280;40551;50.478;19.378;2023-07-13T05:00:31;97607.35;;;21.70;83.65
53526;BME280;40551;50.478;19.378;2023-07-13T05:03:05;97593.13;;;21.72;83.24
53526;BME280;40551;50.478;19.378;2023-07-13T05:05:40;97590.75;;;21.81;83.03
53526;BME280;40551;50.478;19.378;2023-07-13T05:08:13;97589.22;;;21.91;82.85
53526;BME280;40551;50.478;19.378;2023-07-13T05:10:47;97580.77;;;22.03;82.57
53526;BME280;40551;50.478;19.378;2023-07-13T05:13:21;97571.84;;;22.22;82.54
53526;BME280;40551;50.478;19.378;2023-07-13T05:16:03;97566.09;;;22.39;82.07
53526;BME280;40551;50.478;19.378;2023-07-13T05:18:37;97568.85;;;22.62;81.79
53526;BME280;40551;50.478;19.378;2023-07-13T05:21:14;97572.05;;;23.16;81.78
53526;BME280;40551;50.478;19.378;2023-07-13T05:23:47;97576.63;;;23.81;81.18
53526;BME280;40551;50.478;19.378;2023-07-13T05:26:20;97579.52;;;24.54;80.02
53526;BME280;40551;50.478;19.378;2023-07-13T05:28:54;97582.23;;;25.22;78.41
53526;BME280;40551;50.478;19.378;2023-07-13T05:31:27;97580.54;;;25.87;76.35
53526;BME280;40551;50.478;19.378;2023-07-13T05:34:01;97575.69;;;26.42;74.27
53526;BME280;40551;50.478;19.378;2023-07-13T05:36:34;97579.42;;;26.93;73.02
53526;BME280;40551;50.478;19.378;2023-07-13T05:39:07;97583.90;;;27.38;71.09
53526;BME280;40551;50.478;19.378;2023-07-13T05:41:40;97584.86;;;27.63;69.46
53526;BME280;40551;50.478;19.378;2023-07-13T05:44:13;97586.40;;;27.92;68.43
53526;BME280;40551;50.478;19.378;2023-07-13T05:46:47;97586.23;;;28.20;67.38
53526;BME280;40551;50.478;19.378;2023-07-13T05:49:22;97583.93;;;28.36;65.92
53526;BME280;40551;50.478;19.378;2023-07-13T05:51:55;97587.04;;;28.47;64.50
53526;BME280;40551;50.478;19.378;2023-07-13T05:54:33;97581.08;;;28.52;63.65
53526;BME280;40551;50.478;19.378;2023-07-13T05:57:10;97580.45;;;28.72;63.67
53526;BME280;40551;50.478;19.378;2023-07-13T05:59:43;97583.75;;;28.88;62.54
53526;BME280;40551;50.478;19.378;2023-07-13T06:02:16;97586.59;;;28.97;62.01
53526;BME280;40551;50.478;19.378;2023-07-13T06:04:48;97583.29;;;29.03;61.14
53526;BME280;40551;50.478;19.378;2023-07-13T06:07:24;97581.46;;;28.98;60.23
53526;BME280;40551;50.478;19.378;2023-07-13T06:09:58;97587.07;;;28.87;59.93
53526;BME280;40551;50.478;19.378;2023-07-13T06:12:32;97582.02;;;28.76;59.93
53526;BME280;40551;50.478;19.378;2023-07-13T06:15:09;97577.63;;;28.75;60.15
53526;BME280;40551;50.478;19.378;2023-07-13T06:17:43;97577.89;;;28.74;59.69
53526;BME280;40551;50.478;19.378;2023-07-13T06:20:17;97570.77;;;28.47;59.00
53526;BME280;40551;50.478;19.378;2023-07-13T06:22:51;97570.45;;;28.29;59.77
53526;BME280;40551;50.478;19.378;2023-07-13T06:25:25;97571.15;;;28.23;59.75
53526;BME280;40551;50.478;19.378;2023-07-13T06:28:00;97574.02;;;27.99;59.11
53526;BME280;40551;50.478;19.378;2023-07-13T06:30:34;97573.29;;;27.70;59.06
53526;BME280;40551;50.478;19.378;2023-07-13T06:33:07;97567.96;;;27.46;59.03
53526;BME280;40551;50.478;19.378;2023-07-13T06:35:42;97567.34;;;27.33;59.75
53526;BME280;40551;50.478;19.378;2023-07-13T06:38:15;97566.54;;;27.43;60.38
53526;BME280;40551;50.478;19.378;2023-07-13T06:40:48;97565.71;;;27.56;60.52
53526;BME280;40551;50.478;19.378;2023-07-13T06:43:24;97564.04;;;27.81;60.98
53526;BME280;40551;50.478;19.378;2023-07-13T06:45:58;97562.97;;;28.10;60.68
53526;BME280;40551;50.478;19.378;2023-07-13T06:48:31;97565.36;;;28.21;59.02
53526;BME280;40551;50.478;19.378;2023-07-13T06:51:05;97569.14;;;28.32;58.49
53526;BME280;40551;50.478;19.378;2023-07-13T06:53:38;97569.84;;;28.32;56.72
53526;BME280;40551;50.478;19.378;2023-07-13T06:56:11;97578.14;;;28.14;56.04
53526;BME280;40551;50.478;19.378;2023-07-13T06:58:44;97571.79;;;27.90;56.31
53526;BME280;40551;50.478;19.378;2023-07-13T07:01:17;97570.97;;;27.88;57.31
53526;BME280;40551;50.478;19.378;2023-07-13T07:03:51;97574.11;;;27.82;56.78
53526;BME280;40551;50.478;19.378;2023-07-13T07:06:25;97570.77;;;27.58;56.73
53526;BME280;40551;50.478;19.378;2023-07-13T07:08:59;97572.81;;;27.41;57.16
53526;BME280;40551;50.478;19.378;2023-07-13T07:11:31;97577.47;;;27.37;57.67
53526;BME280;40551;50.478;19.378;2023-07-13T07:14:04;97580.30;;;27.27;57.69
53526;BME280;40551;50.478;19.378;2023-07-13T07:16:37;97580.15;;;27.12;57.66
53526;BME280;40551;50.478;19.378;2023-07-13T07:19:10;97576.61;;;26.90;57.20
53526;BME280;40551;50.478;19.378;2023-07-13T07:21:43;97580.01;;;26.69;57.27
53526;BME280;40551;50.478;19.378;2023-07-13T07:24:17;97587.58;;;26.34;56.08
53526;BME280;40551;50.478;19.378;2023-07-13T07:26:52;97596.34;;;26.13;57.19
53526;BME280;40551;50.478;19.378;2023-07-13T07:29:30;97601.62;;;26.03;57.81
53526;BME280;40551;50.478;19.378;2023-07-13T07:32:10;97602.95;;;25.91;58.19
53526;BME280;40551;50.478;19.378;2023-07-13T07:35:03;97604.84;;;25.95;59.05
53526;BME280;40551;50.478;19.378;2023-07-13T07:37:37;97605.95;;;25.98;59.51
53526;BME280;40551;50.478;19.378;2023-07-13T07:40:13;97611.02;;;25.95;58.64
53526;BME280;40551;50.478;19.378;2023-07-13T07:42:49;97612.14;;;25.85;58.69
53526;BME280;40551;50.478;19.378;2023-07-13T07:45:22;97614.24;;;25.87;58.72
53526;BME280;40551;50.478;19.378;2023-07-13T07:47:56;97613.05;;;25.89;58.34
53526;BME280;40551;50.478;19.378;2023-07-13T07:50:30;97612.36;;;25.89;58.61
53526;BME280;40551;50.478;19.378;2023-07-13T07:53:05;97613.35;;;25.90;58.35
53526;BME280;40551;50.478;19.378;2023-07-13T07:55:41;97614.64;;;25.87;58.59
53526;BME280;40551;50.478;19.378;2023-07-13T07:58:17;97612.02;;;25.97;59.17
53526;BME280;40551;50.478;19.378;2023-07-13T08:00:53;97609.39;;;26.02;59.00
53526;BME280;40551;50.478;19.378;2023-07-13T08:03:29;97613.19;;;26.10;58.74
53526;BME280;40551;50.478;19.378;2023-07-13T08:06:23;97611.89;;;26.18;58.33
53526;BME280;40551;50.478;19.378;2023-07-13T08:09:14;97609.34;;;26.32;58.28
53526;BME280;40551;50.478;19.378;2023-07-13T08:11:48;97613.37;;;26.36;57.54
53526;BME280;40551;50.478;19.378;2023-07-13T08:14:25;97618.17;;;26.35;57.30
53526;BME280;40551;50.478;19.378;2023-07-13T08:17:18;97619.27;;;26.45;57.89
53526;BME280;40551;50.478;19.378;2023-07-13T08:19:51;97615.48;;;26.57;58.34
53526;BME280;40551;50.478;19.378;2023-07-13T08:22:25;97607.55;;;26.66;58.14
53526;BME280;40551;50.478;19.378;2023-07-13T08:25:00;97601.05;;;26.66;57.37
53526;BME280;40551;50.478;19.378;2023-07-13T08:27:35;97602.17;;;26.66;58.03
53526;BME280;40551;50.478;19.378;2023-07-13T08:30:13;97603.02;;;26.73;58.42
53526;BME280;40551;50.478;19.378;2023-07-13T08:32:46;97602.20;;;26.84;58.57
53526;BME280;40551;50.478;19.378;2023-07-13T08:35:19;97597.27;;;26.93;57.24
53526;BME280;40551;50.478;19.378;2023-07-13T08:37:54;97599.40;;;27.01;56.76
53526;BME280;40551;50.478;19.378;2023-07-13T08:40:28;97595.20;;;27.08;56.08
53526;BME280;40551;50.478;19.378;2023-07-13T08:43:04;97591.84;;;27.15;55.50
53526;BME280;40551;50.478;19.378;2023-07-13T08:45:43;97596.02;;;27.20;55.66
53526;BME280;40551;50.478;19.378;2023-07-13T08:48:21;97600.89;;;27.29;56.10
53526;BME280;40551;50.478;19.378;2023-07-13T08:51:00;97600.05;;;27.34;55.25
53526;BME280;40551;50.478;19.378;2023-07-13T08:53:38;97593.80;;;27.36;55.09
53526;BME280;40551;50.478;19.378;2023-07-13T08:56:19;97595.12;;;27.37;55.33
53526;BME280;40551;50.478;19.378;2023-07-13T08:58:55;97598.47;;;27.38;55.40
53526;BME280;40551;50.478;19.378;2023-07-13T09:01:54;97599.59;;;27.36;55.57
53526;BME280;40551;50.478;19.378;2023-07-13T09:04:37;97602.11;;;27.29;55.30
53526;BME280;40551;50.478;19.378;2023-07-13T09:07:21;97599.64;;;27.26;56.18
53526;BME280;40551;50.478;19.378;2023-07-13T09:10:12;97597.17;;;27.22;56.03
53526;BME280;40551;50.478;19.378;2023-07-13T09:12:55;97594.36;;;27.13;56.02
53526;BME280;40551;50.478;19.378;2023-07-13T09:15:34;97593.09;;;27.15;56.51
53526;BME280;40551;50.478;19.378;2023-07-13T09:18:10;97593.73;;;27.10;56.28
53526;BME280;40551;50.478;19.378;2023-07-13T09:20:48;97596.20;;;27.02;56.08
53526;BME280;40551;50.478;19.378;2023-07-13T09:23:26;97599.51;;;26.87;55.63
53526;BME280;40551;50.478;19.378;2023-07-13T09:26:09;97602.28;;;26.74;55.88
53526;BME280;40551;50.478;19.378;2023-07-13T09:28:47;97604.20;;;26.60;56.03
53526;BME280;40551;50.478;19.378;2023-07-13T09:31:26;97615.33;;;26.48;56.33
53526;BME280;40551;50.478;19.378;2023-07-13T09:34:08;97621.02;;;26.15;56.36
53526;BME280;40551;50.478;19.378;2023-07-13T09:36:43;97624.42;;;25.76;57.09
53526;BME280;40551;50.478;19.378;2023-07-13T09:39:21;97625.48;;;25.37;57.54
53526;BME280;40551;50.478;19.378;2023-07-13T09:42:03;97628.92;;;24.98;58.44
53526;BME280;40551;50.478;19.378;2023-07-13T09:44:53;97626.09;;;24.59;58.92
53526;BME280;40551;50.478;19.378;2023-07-13T09:47:28;97634.60;;;24.24;59.83
53526;BME280;40551;50.478;19.378;2023-07-13T09:50:03;97633.48;;;23.91;60.51
53526;BME280;40551;50.478;19.378;2023-07-13T09:52:44;97633.03;;;23.67;61.27
53526;BME280;40551;50.478;19.378;2023-07-13T09:55:32;97641.45;;;23.39;61.94
53526;BME280;40551;50.478;19.378;2023-07-13T09:58:13;97640.11;;;23.15;62.90
53526;BME280;40551;50.478;19.378;2023-07-13T10:00:59;97645.51;;;22.90;63.66
53526;BME280;40551;50.478;19.378;2023-07-13T10:03:35;97653.46;;;22.66;64.60
53526;BME280;40551;50.478;19.378;2023-07-13T10:06:16;97659.04;;;22.38;65.28
53526;BME280;40551;50.478;19.378;2023-07-13T10:08:50;97671.65;;;22.14;66.37
53526;BME280;40551;50.478;19.378;2023-07-13T10:11:26;97677.94;;;21.88;66.95
53526;BME280;40551;50.478;19.378;2023-07-13T10:14:02;97686.58;;;21.62;67.45
53526;BME280;40551;50.478;19.378;2023-07-13T10:16:37;97690.35;;;21.38;68.11
53526;BME280;40551;50.478;19.378;2023-07-13T10:19:17;97699.59;;;21.10;68.65
53526;BME280;40551;50.478;19.378;2023-07-13T10:21:55;97710.07;;;20.79;69.14
53526;BME280;40551;50.478;19.378;2023-07-13T10:24:31;97717.05;;;20.56;69.26
53526;BME280;40551;50.478;19.378;2023-07-13T10:27:15;97724.23;;;20.28;69.66
53526;BME280;40551;50.478;19.378;2023-07-13T10:29:55;97733.66;;;19.98;69.78
53526;BME280;40551;50.478;19.378;2023-07-13T10:32:33;97737.88;;;19.69;69.66
53526;BME280;40551;50.478;19.378;2023-07-13T10:35:10;97744.66;;;19.42;69.70
53526;BME280;40551;50.478;19.378;2023-07-13T10:37:49;97745.58;;;19.16;69.72
53526;BME280;40551;50.478;19.378;2023-07-13T10:40:27;97753.70;;;18.95;69.69
53526;BME280;40551;50.478;19.378;2023-07-13T10:43:16;97748.13;;;18.76;70.04
53526;BME280;40551;50.478;19.378;2023-07-13T10:45:51;97757.23;;;18.60;70.52
53526;BME280;40551;50.478;19.378;2023-07-13T10:48:26;97765.42;;;18.41;71.09
53526;BME280;40551;50.478;19.378;2023-07-13T10:51:03;97780.02;;;18.28;71.83
53526;BME280;40551;50.478;19.378;2023-07-13T10:53:38;97791.04;;;18.15;72.27
53526;BME280;40551;50.478;19.378;2023-07-13T10:56:23;97803.05;;;18.02;72.69
53526;BME280;40551;50.478;19.378;2023-07-13T10:59:12;97807.65;;;17.89;73.38
53526;BME280;40551;50.478;19.378;2023-07-13T11:01:56;97814.90;;;17.78;73.86
53526;BME280;40551;50.478;19.378;2023-07-13T11:04:39;97817.74;;;17.69;74.32
53526;BME280;40551;50.478;19.378;2023-07-13T11:07:27;97809.05;;;17.61;74.74
53526;BME280;40551;50.478;19.378;2023-07-13T11:10:04;97795.82;;;17.53;75.08
53526;BME280;40551;50.478;19.378;2023-07-13T11:12:52;97783.20;;;17.47;75.58
53526;BME280;40551;50.478;19.378;2023-07-13T11:15:42;97776.44;;;17.44;76.01
53526;BME280;40551;50.478;19.378;2023-07-13T11:18:25;97773.66;;;17.43;76.03
53526;BME280;40551;50.478;19.378;2023-07-13T11:21:15;97768.79;;;17.44;76.47
53526;BME280;40551;50.478;19.378;2023-07-13T11:24:14;97763.27;;;17.40;76.90
53526;BME280;40551;50.478;19.378;2023-07-13T11:26:55;97762.30;;;17.37;77.12
53526;BME280;40551;50.478;19.378;2023-07-13T11:29:36;97763.63;;;17.36;77.41
53526;BME280;40551;50.478;19.378;2023-07-13T11:32:24;97760.91;;;17.34;77.77
53526;BME280;40551;50.478;19.378;2023-07-13T11:34:59;97767.17;;;17.33;77.91
53526;BME280;40551;50.478;19.378;2023-07-13T11:37:33;97771.23;;;17.30;78.23
53526;BME280;40551;50.478;19.378;2023-07-13T11:40:15;97777.84;;;17.29;78.40
53526;BME280;40551;50.478;19.378;2023-07-13T11:42:52;97777.98;;;17.30;78.64
53526;BME280;40551;50.478;19.378;2023-07-13T11:45:27;97776.50;;;17.29;78.89
53526;BME280;40551;50.478;19.378;2023-07-13T11:48:28;97780.52;;;17.27;79.10
53526;BME280;40551;50.478;19.378;2023-07-13T11:51:04;97778.71;;;17.25;79.14
53526;BME280;40551;50.478;19.378;2023-07-13T11:53:43;97775.36;;;17.28;79.24
53526;BME280;40551;50.478;19.378;2023-07-13T11:56:18;97770.34;;;17.31;79.40
53526;BME280;40551;50.478;19.378;2023-07-13T11:58:57;97773.73;;;17.35;79.52
53526;BME280;40551;50.478;19.378;2023-07-13T12:01:34;97772.73;;;17.40;79.61
53526;BME280;40551;50.478;19.378;2023-07-13T12:04:19;97771.84;;;17.48;79.71
53526;BME280;40551;50.478;19.378;2023-07-13T12:07:06;97773.46;;;17.47;79.43
53526;BME280;40551;50.478;19.378;2023-07-13T12:09:40;97770.09;;;17.48;79.91
53526;BME280;40551;50.478;19.378;2023-07-13T12:12:16;97764.09;;;17.51;79.98
53526;BME280;40551;50.478;19.378;2023-07-13T12:14:56;97764.27;;;17.50;80.03
53526;BME280;40551;50.478;19.378;2023-07-13T12:17:31;97764.55;;;17.52;80.16
53526;BME280;40551;50.478;19.378;2023-07-13T12:23:24;97759.96;;;17.58;80.50
53526;BME280;40551;50.478;19.378;2023-07-13T12:26:00;97759.15;;;17.59;80.58
53526;BME280;40551;50.478;19.378;2023-07-13T12:28:37;97759.52;;;17.62;80.65
53526;BME280;40551;50.478;19.378;2023-07-13T12:31:29;97752.83;;;17.63;80.61
53526;BME280;40551;50.478;19.378;2023-07-13T12:34:06;97749.30;;;17.66;80.94
53526;BME280;40551;50.478;19.378;2023-07-13T12:36:46;97748.52;;;17.75;81.22
53526;BME280;40551;50.478;19.378;2023-07-13T12:39:24;97747.55;;;17.87;81.48
53526;BME280;40551;50.478;19.378;2023-07-13T12:42:18;97748.50;;;18.01;81.73
53526;BME280;40551;50.478;19.378;2023-07-13T12:44:56;97741.35;;;18.10;80.74
53526;BME280;40551;50.478;19.378;2023-07-13T12:47:32;97742.20;;;18.13;80.37
53526;BME280;40551;50.478;19.378;2023-07-13T12:50:18;97751.33;;;18.23;80.55
53526;BME280;40551;50.478;19.378;2023-07-13T12:52:56;97753.90;;;18.36;80.71
53526;BME280;40551;50.478;19.378;2023-07-13T12:55:42;97755.14;;;18.51;80.71
53526;BME280;40551;50.478;19.378;2023-07-13T12:58:24;97747.86;;;18.66;80.60
53526;BME280;40551;50.478;19.378;2023-07-13T13:01:02;97749.01;;;18.81;80.12
53526;BME280;40551;50.478;19.378;2023-07-13T13:03:37;97752.22;;;19.02;80.09
53526;BME280;40551;50.478;19.378;2023-07-13T13:06:24;97752.57;;;19.17;79.42
53526;BME280;40551;50.478;19.378;2023-07-13T13:08:59;97747.21;;;19.35;79.28
53526;BME280;40551;50.478;19.378;2023-07-13T13:11:34;97753.86;;;19.57;79.60
53526;BME280;40551;50.478;19.378;2023-07-13T13:14:08;97774.02;;;19.81;79.60
53526;BME280;40551;50.478;19.378;2023-07-13T13:16:47;97791.09;;;20.05;79.81
53526;BME280;40551;50.478;19.378;2023-07-13T13:19:25;97791.36;;;20.16;78.40
53526;BME280;40551;50.478;19.378;2023-07-13T13:21:58;97788.80;;;20.23;78.12
53526;BME280;40551;50.478;19.378;2023-07-13T13:24:32;97788.04;;;20.26;77.54
53526;BME280;40551;50.478;19.378;2023-07-13T13:27:09;97791.58;;;20.29;77.54
53526;BME280;40551;50.478;19.378;2023-07-13T13:29:49;97797.80;;;20.32;77.31
53526;BME280;40551;50.478;19.378;2023-07-13T13:32:24;97799.02;;;20.33;77.26
53526;BME280;40551;50.478;19.378;2023-07-13T13:34:57;97799.01;;;20.38;77.12
53526;BME280;40551;50.478;19.378;2023-07-13T13:37:32;97805.17;;;20.47;77.65
53526;BME280;40551;50.478;19.378;2023-07-13T13:40:14;97811.73;;;20.55;77.67
53526;BME280;40551;50.478;19.378;2023-07-13T13:42:49;97816.10;;;20.63;77.55
53526;BME280;40551;50.478;19.378;2023-07-13T13:45:23;97819.23;;;20.66;77.71